Wyalusing, Wisconsin
Current Conditions -  °F | °C
As of 4:35 AM on Friday 21 Nov 2014 (Local Time) from KPDC Reporting Station
Light Snow Light Snow  
Wind Chill:   Ceiling: Unl
Heat Index:   Visibility: 10mi
Dew Point: -2°   Wind: 0mph
Humidity: 79%   Direction: NA
Pressure: 30.37"   Gusts: NA
Location:  42.927°N, 91.0649°W
Report Text: KPDC 211035Z AUTO 00000KT 10SM -SN CLR M16/M19 A3037 RMK AO2 T11621191
Loading
Personal Weather Stations






























Interactive Weather Map New forecast layout! Learn more

10-Day Weather Forecast

Advertisements
Track Severe Weather on mobile